Time;durP1;ratioP1;P1;durP2;ratioP2;P2;SDS_P1;SDS_P2;PMS_P1;PMS_P2;Temp;Humidity;BMP_temperature;BMP_pressure;BME280_temperature;BME280_humidity;BME280_pressure;Samples;Min_cycle;Max_cycle;Signal;HPM_P1;HPM_P2
2023/07/16 00:02:02;;;;;;;3.33;1.98;;;;;;;22.59;59.58;100860.50;5058377;28;20161;-58
2023/07/16 00:04:27;;;;;;;3.47;1.75;;;;;;;22.59;59.01;100863.19;5062559;28;20119;-58
2023/07/16 00:06:52;;;;;;;4.07;2.10;;;;;;;22.59;58.75;100862.38;5058521;28;20463;-58
2023/07/16 00:09:18;;;;;;;6.40;2.03;;;;;;;22.57;58.63;100861.69;5066022;28;20368;-58
2023/07/16 00:11:43;;;;;;;3.03;1.75;;;;;;;22.55;58.40;100861.88;5059741;28;20108;-58
2023/07/16 00:14:11;;;;;;;4.85;1.70;;;;;;;22.54;58.22;100871.03;5064345;28;20020;-58
2023/07/16 00:16:37;;;;;;;3.30;1.60;;;;;;;22.54;58.21;100876.47;5059902;28;20491;-58
2023/07/16 00:19:03;;;;;;;4.55;1.77;;;;;;;22.53;58.07;100868.50;5061313;28;20071;-58
2023/07/16 00:21:28;;;;;;;5.32;2.08;;;;;;;22.53;57.70;100873.94;5062080;28;20025;-58
2023/07/16 00:23:53;;;;;;;5.45;1.52;;;;;;;22.52;58.24;100873.06;5064371;28;20033;-58
2023/07/16 00:26:19;;;;;;;10.45;1.85;;;;;;;22.53;57.99;100882.06;5067498;28;20107;-58
2023/07/16 00:28:44;;;;;;;2.83;1.60;;;;;;;22.51;57.89;100882.25;5061913;28;20445;-58
2023/07/16 00:31:10;;;;;;;5.68;1.80;;;;;;;22.49;57.88;100878.84;5046800;28;20435;-58
2023/07/16 00:33:35;;;;;;;3.78;1.52;;;;;;;22.49;57.74;100881.56;5061348;28;20029;-58
2023/07/16 00:36:01;;;;;;;4.82;2.10;;;;;;;22.50;57.58;100880.53;5063555;28;20032;-58
2023/07/16 00:38:26;;;;;;;3.00;1.33;;;;;;;22.48;57.41;100876.31;5059069;28;20035;-58
2023/07/16 00:40:52;;;;;;;1.90;1.40;;;;;;;22.47;57.33;100870.06;5055284;28;20124;-58
2023/07/16 00:43:17;;;;;;;4.72;1.70;;;;;;;22.49;57.48;100880.72;5059959;28;20028;-58
2023/07/16 00:45:46;;;;;;;8.20;1.80;;;;;;;22.47;57.29;100883.63;5062944;28;20063;-59
2023/07/16 00:48:12;;;;;;;6.63;1.77;;;;;;;22.47;57.51;100877.34;5060192;28;20546;-58
2023/07/16 00:50:39;;;;;;;3.90;1.50;;;;;;;22.45;57.42;100881.06;5063156;28;20116;-58
2023/07/16 00:53:06;;;;;;;9.25;2.03;;;;;;;22.44;56.99;100881.25;5059910;28;20072;-58
2023/07/16 00:55:31;;;;;;;4.13;1.70;;;;;;;22.43;56.89;100874.13;5063066;28;20123;-58
2023/07/16 00:58:05;;;;;;;6.20;1.67;;;;;;;22.43;56.90;100882.28;5062530;28;20096;-59
2023/07/16 01:00:35;;;;;;;3.40;1.88;;;;;;;22.41;57.09;100871.59;5059663;28;20429;-58
2023/07/16 01:03:08;;;;;;;4.57;1.58;;;;;;;22.42;56.74;100881.41;5059446;28;20025;-58
2023/07/16 01:06:10;;;;;;;3.13;1.90;;;;;;;22.43;57.38;100877.69;5061089;28;20837;-58
2023/07/16 01:09:07;;;;;;;6.38;1.92;;;;;;;22.42;57.19;100883.28;5058202;28;20501;-58
2023/07/16 01:11:35;;;;;;;3.50;1.70;;;;;;;22.40;56.71;100886.16;5060032;28;20047;-58
2023/07/16 01:14:02;;;;;;;6.10;2.35;;;;;;;22.38;56.32;100882.78;5044386;28;20027;-58
2023/07/16 01:16:27;;;;;;;4.93;1.80;;;;;;;22.39;56.19;100878.19;5062438;28;20060;-58
2023/07/16 01:18:53;;;;;;;2.35;1.40;;;;;;;22.38;56.42;100876.53;5061011;28;20029;-58
2023/07/16 01:21:21;;;;;;;4.25;1.70;;;;;;;22.37;56.65;100877.53;5061100;28;20032;-58
2023/07/16 01:24:01;;;;;;;5.45;2.05;;;;;;;22.38;56.60;100873.81;5060857;28;20037;-58
2023/07/16 01:26:46;;;;;;;4.53;2.00;;;;;;;22.36;56.13;100865.84;5055455;28;20387;-58
2023/07/16 01:29:27;;;;;;;5.45;1.77;;;;;;;22.37;56.24;100863.97;5063250;28;20531;-58
2023/07/16 01:31:55;;;;;;;3.13;1.52;;;;;;;22.36;56.12;100867.72;5050232;28;20565;-58
2023/07/16 01:34:21;;;;;;;4.30;1.58;;;;;;;22.34;56.21;100872.47;5058570;28;20028;-58
2023/07/16 01:36:49;;;;;;;4.22;1.65;;;;;;;22.34;55.87;100861.63;5058747;28;20097;-58
2023/07/16 01:39:14;;;;;;;4.03;1.77;;;;;;;22.33;56.01;100868.91;5058865;28;20040;-58
2023/07/16 01:41:40;;;;;;;7.32;1.75;;;;;;;22.33;55.89;100873.47;5058697;28;20024;-58
2023/07/16 01:44:05;;;;;;;3.10;1.63;;;;;;;22.33;56.39;100873.47;5057544;28;20115;-58
2023/07/16 01:46:31;;;;;;;5.55;1.88;;;;;;;22.32;56.46;100871.81;5062036;28;20037;-58
2023/07/16 01:48:57;;;;;;;4.82;1.60;;;;;;;22.30;56.22;100871.97;5050707;28;20041;-58
2023/07/16 01:51:22;;;;;;;2.97;1.50;;;;;;;22.30;56.25;100880.09;5058267;28;20438;-58
2023/07/16 01:53:48;;;;;;;4.43;1.92;;;;;;;22.31;55.74;100878.22;5061749;28;20028;-58
2023/07/16 01:56:13;;;;;;;6.15;1.88;;;;;;;22.30;56.29;100877.41;5064951;28;20032;-58
2023/07/16 01:58:39;;;;;;;8.18;1.55;;;;;;;22.28;56.30;100874.00;5062080;28;20025;-58
2023/07/16 02:01:04;;;;;;;6.03;1.90;;;;;;;22.29;55.99;100877.56;5059189;28;20040;-58
2023/07/16 02:03:29;;;;;;;5.90;2.00;;;;;;;22.28;56.11;100868.59;5059190;28;20506;-58
2023/07/16 02:05:55;;;;;;;2.97;1.80;;;;;;;22.28;56.67;100865.03;5059578;28;20094;-58
2023/07/16 02:08:20;;;;;;;4.18;1.75;;;;;;;22.26;56.60;100862.50;5056464;28;20029;-58
2023/07/16 02:10:48;;;;;;;4.35;2.33;;;;;;;22.25;56.32;100864.34;5066883;28;20033;-58
2023/07/16 02:13:14;;;;;;;4.03;1.70;;;;;;;22.24;56.55;100870.78;5058817;28;20501;-58
2023/07/16 02:15:39;;;;;;;4.57;1.85;;;;;;;22.25;56.30;100867.06;5061397;28;20046;-59
2023/07/16 02:18:05;;;;;;;3.20;1.70;;;;;;;22.24;56.46;100870.78;5062215;28;20044;-58
2023/07/16 02:20:31;;;;;;;5.72;2.13;;;;;;;22.23;56.57;100879.06;5061859;28;20403;-58
2023/07/16 02:22:56;;;;;;;4.97;1.90;;;;;;;22.24;57.00;100880.78;5060076;28;20024;-58
2023/07/16 02:25:22;;;;;;;4.53;1.80;;;;;;;22.23;56.70;100869.06;5062935;28;20036;-58
2023/07/16 02:27:47;;;;;;;4.30;1.77;;;;;;;22.23;56.56;100882.63;5066559;28;20398;-58
2023/07/16 02:30:14;;;;;;;3.55;1.70;;;;;;;22.22;56.85;100889.09;5065965;28;20082;-58
2023/07/16 02:32:40;;;;;;;6.05;1.67;;;;;;;22.22;56.73;100886.38;5068321;28;20025;-58
2023/07/16 02:35:05;;;;;;;2.33;1.70;;;;;;;22.22;57.14;100893.66;5060378;28;20035;-58
2023/07/16 02:37:31;;;;;;;5.93;1.73;;;;;;;22.21;56.90;100884.66;5061410;28;20033;-58
2023/07/16 02:39:56;;;;;;;8.05;1.77;;;;;;;22.21;57.40;100890.09;5060518;28;20470;-58
2023/07/16 02:42:22;;;;;;;3.13;1.58;;;;;;;22.21;56.86;100895.50;5062026;28;20402;-58
2023/07/16 02:44:47;;;;;;;4.32;1.80;;;;;;;22.20;57.13;100885.69;5061464;28;20434;-58
2023/07/16 02:47:12;;;;;;;2.83;1.50;;;;;;;22.22;57.35;100890.97;5062482;28;20091;-58
2023/07/16 02:49:38;;;;;;;3.67;2.20;;;;;;;22.20;57.51;100901.97;5065519;28;20036;-58
2023/07/16 02:52:04;;;;;;;3.47;1.40;;;;;;;22.19;57.57;100902.97;5047767;28;20029;-58
2023/07/16 02:54:30;;;;;;;4.90;2.17;;;;;;;22.19;56.94;100897.56;5065133;28;20032;-58
2023/07/16 02:56:55;;;;;;;4.05;1.95;;;;;;;22.19;56.91;100896.72;5065115;28;20029;-58
2023/07/16 02:59:20;;;;;;;2.30;1.85;;;;;;;22.19;57.06;100900.25;5061985;28;20135;-58
2023/07/16 03:01:46;;;;;;;2.92;1.70;;;;;;;22.19;56.99;100891.28;5065885;28;20021;-58
2023/07/16 03:04:11;;;;;;;3.40;1.75;;;;;;;22.18;57.46;100903.16;5068104;28;20363;-58
2023/07/16 03:06:36;;;;;;;5.82;1.77;;;;;;;22.17;57.10;100896.88;5064944;28;20033;-58
2023/07/16 03:09:02;;;;;;;3.97;1.75;;;;;;;22.16;57.25;100908.78;5064590;28;20115;-58
2023/07/16 03:11:27;;;;;;;5.53;1.80;;;;;;;22.16;57.21;100899.75;5059556;28;20078;-58
2023/07/16 03:13:53;;;;;;;3.00;1.75;;;;;;;22.17;57.30;100909.59;5060620;28;20463;-58
2023/07/16 03:16:18;;;;;;;7.32;1.90;;;;;;;22.15;57.04;100909.78;5064578;28;20064;-58
2023/07/16 03:18:45;;;;;;;3.97;2.35;;;;;;;22.14;57.43;100908.09;5065106;28;20470;-58
2023/07/16 03:21:11;;;;;;;4.63;1.80;;;;;;;22.15;57.11;100917.06;5041352;28;20444;-58
2023/07/16 03:23:36;;;;;;;4.28;1.63;;;;;;;22.14;57.37;100913.53;5062932;28;20073;-58
2023/07/16 03:26:01;;;;;;;5.93;1.90;;;;;;;22.15;56.98;100911.66;5064252;28;20029;-58
2023/07/16 03:28:27;;;;;;;2.63;1.70;;;;;;;22.14;57.18;100918.94;5061697;28;20064;-58
2023/07/16 03:30:53;;;;;;;3.60;1.88;;;;;;;22.13;56.96;100919.94;5067559;28;20162;-58
2023/07/16 03:33:19;;;;;;;3.95;1.85;;;;;;;22.11;57.30;100922.00;5060815;28;20040;-58
2023/07/16 03:35:46;;;;;;;5.82;2.17;;;;;;;22.13;56.87;100919.09;5061323;28;20035;-58
2023/07/16 03:38:13;;;;;;;6.00;2.00;;;;;;;22.12;56.73;100920.94;5063736;28;20031;-58
2023/07/16 03:40:38;;;;;;;5.30;1.85;;;;;;;22.11;56.74;100930.13;5063893;28;20078;-58
2023/07/16 03:43:04;;;;;;;4.80;1.90;;;;;;;22.12;56.82;100926.38;5061431;28;20428;-58
2023/07/16 03:45:29;;;;;;;5.05;2.20;;;;;;;22.10;56.43;100925.69;5060616;28;20383;-58
2023/07/16 03:47:55;;;;;;;5.90;2.40;;;;;;;22.09;56.53;100932.16;5058954;28;20025;-58
2023/07/16 03:50:20;;;;;;;4.97;2.10;;;;;;;22.09;55.87;100934.88;5060605;28;20475;-58
2023/07/16 03:52:47;;;;;;;6.38;2.40;;;;;;;22.08;55.67;100944.00;5059674;28;20445;-58
2023/07/16 03:55:12;;;;;;;6.68;2.70;;;;;;;22.07;55.74;100950.47;5056292;28;20449;-59
2023/07/16 03:57:38;;;;;;;5.55;2.22;;;;;;;22.06;55.34;100949.59;5064088;28;20033;-58
2023/07/16 04:00:07;;;;;;;4.68;2.17;;;;;;;22.06;55.07;100951.47;5060016;28;20079;-59
2023/07/16 04:02:32;;;;;;;4.60;2.28;;;;;;;22.04;55.28;100958.94;5064428;28;20035;-59
2023/07/16 04:04:58;;;;;;;6.00;2.50;;;;;;;22.04;55.10;100958.94;5061767;28;20107;-58
2023/07/16 04:07:23;;;;;;;9.43;3.50;;;;;;;22.04;55.20;100967.06;5059790;28;20037;-58
2023/07/16 04:09:48;;;;;;;6.20;2.63;;;;;;;22.04;55.47;100962.47;5061724;28;20459;-58
2023/07/16 04:12:14;;;;;;;7.28;2.58;;;;;;;22.04;55.36;100961.66;5059797;28;20040;-58
2023/07/16 04:14:39;;;;;;;4.78;3.10;;;;;;;22.03;55.15;100965.38;5063814;28;20047;-58
2023/07/16 04:17:05;;;;;;;3.97;2.38;;;;;;;22.01;54.92;100970.97;5059666;28;20068;-58
2023/07/16 04:19:31;;;;;;;4.88;2.60;;;;;;;22.01;54.85;100970.13;5060965;28;20113;-58
2023/07/16 04:21:56;;;;;;;7.00;3.03;;;;;;;22.02;54.72;100979.94;5061978;28;20082;-58
2023/07/16 04:24:23;;;;;;;4.63;3.15;;;;;;;22.00;54.92;100979.28;5061739;28;20386;-58
2023/07/16 04:26:49;;;;;;;6.35;2.90;;;;;;;22.00;54.86;100980.13;5066388;28;20029;-59
2023/07/16 04:29:14;;;;;;;5.78;2.60;;;;;;;21.99;54.81;100986.56;5062365;28;20428;-58
2023/07/16 04:31:39;;;;;;;9.57;3.15;;;;;;;22.00;54.59;100992.84;5061486;28;20032;-58
2023/07/16 04:34:05;;;;;;;6.95;3.13;;;;;;;21.98;54.31;100989.44;5059455;28;20032;-58
2023/07/16 04:36:30;;;;;;;6.47;3.10;;;;;;;21.98;54.53;101000.28;5059295;28;20056;-58
2023/07/16 04:38:55;;;;;;;4.68;3.35;;;;;;;21.97;54.23;100999.44;5065716;28;20395;-58
2023/07/16 04:41:22;;;;;;;5.18;3.42;;;;;;;21.97;54.45;101014.84;5067946;28;20107;-58
2023/07/16 04:43:47;;;;;;;5.75;2.72;;;;;;;21.97;54.29;101006.72;5063798;28;20029;-58
2023/07/16 04:46:12;;;;;;;4.82;2.78;;;;;;;21.96;54.03;101014.00;5062449;28;21136;-58
2023/07/16 04:48:38;;;;;;;7.10;3.17;;;;;;;21.96;53.84;101015.88;5058535;28;20033;-58
2023/07/16 04:51:03;;;;;;;4.13;2.80;;;;;;;21.96;54.07;101010.47;5057939;28;20115;-58
2023/07/16 04:53:28;;;;;;;8.25;3.80;;;;;;;21.95;53.90;101022.31;5058851;28;20028;-58
2023/07/16 04:55:54;;;;;;;8.07;3.10;;;;;;;21.95;53.67;101027.72;5063437;28;20033;-59
2023/07/16 04:58:19;;;;;;;7.22;2.78;;;;;;;21.94;54.12;101023.34;5059886;28;20024;-59
2023/07/16 05:00:45;;;;;;;8.27;3.13;;;;;;;21.93;53.76;101025.19;5062189;28;20530;-59
2023/07/16 05:03:11;;;;;;;6.85;3.53;;;;;;;21.92;53.96;101028.09;5055428;28;20032;-58
2023/07/16 05:05:36;;;;;;;6.35;3.42;;;;;;;21.92;53.76;101023.50;5057940;28;20031;-58
2023/07/16 05:08:01;;;;;;;6.30;3.00;;;;;;;21.92;53.50;101025.38;5063005;28;20036;-58
2023/07/16 05:10:27;;;;;;;6.88;3.58;;;;;;;21.92;53.42;101034.34;5065336;28;20394;-58
2023/07/16 05:12:53;;;;;;;9.10;3.40;;;;;;;21.91;53.76;101023.66;5059442;28;20052;-58
2023/07/16 05:15:18;;;;;;;6.15;3.22;;;;;;;21.91;53.63;101026.38;5062941;28;20124;-58
2023/07/16 05:17:44;;;;;;;5.70;3.17;;;;;;;21.91;53.37;101029.09;5046745;28;20414;-59
2023/07/16 05:20:09;;;;;;;7.38;2.97;;;;;;;21.91;53.78;101029.09;5058849;28;20033;-58
2023/07/16 05:22:35;;;;;;;4.05;3.25;;;;;;;21.91;53.85;101034.50;5054841;28;20060;-59
2023/07/16 05:25:01;;;;;;;5.82;3.55;;;;;;;21.90;53.44;101030.13;5056272;28;20464;-59
2023/07/16 05:27:27;;;;;;;5.15;2.80;;;;;;;21.90;53.71;101041.81;5061337;28;20028;-58
2023/07/16 05:29:52;;;;;;;6.22;3.63;;;;;;;21.90;53.69;101035.53;5057807;28;20044;-58
2023/07/16 05:32:17;;;;;;;6.30;3.42;;;;;;;21.88;53.52;101043.84;5060489;28;20044;-58
2023/07/16 05:34:43;;;;;;;6.13;3.80;;;;;;;21.89;53.30;101034.66;5051009;28;20045;-59
2023/07/16 05:37:08;;;;;;;6.47;3.30;;;;;;;21.88;53.57;101043.00;5063262;28;20029;-58
2023/07/16 05:39:34;;;;;;;7.18;3.90;;;;;;;21.88;53.08;101048.41;5057572;28;20378;-58
2023/07/16 05:42:02;;;;;;;7.68;3.53;;;;;;;21.89;53.07;101040.09;5062540;28;20035;-59
2023/07/16 05:44:27;;;;;;;7.28;3.72;;;;;;;21.88;53.21;101057.38;5055061;28;20379;-58
2023/07/16 05:46:52;;;;;;;8.27;3.80;;;;;;;21.88;53.51;101053.84;5058806;28;20029;-58
2023/07/16 05:49:18;;;;;;;7.53;3.20;;;;;;;21.86;52.93;101054.00;5062125;28;20035;-58
2023/07/16 05:51:43;;;;;;;5.93;3.50;;;;;;;21.86;52.99;101059.41;5054673;28;20116;-59
2023/07/16 05:54:08;;;;;;;6.75;4.05;;;;;;;21.85;53.26;101055.84;5062385;28;20360;-59
2023/07/16 05:56:34;;;;;;;7.90;3.72;;;;;;;21.86;53.24;101059.41;5059254;28;20123;-59
2023/07/16 05:58:59;;;;;;;7.22;3.50;;;;;;;21.85;52.94;101063.13;5059095;28;20032;-58
2023/07/16 06:01:24;;;;;;;8.00;3.92;;;;;;;21.85;53.25;101066.69;5058295;28;20119;-59
2023/07/16 06:03:50;;;;;;;8.18;4.30;;;;;;;21.85;52.79;101061.25;5070247;28;20033;-59
2023/07/16 06:06:15;;;;;;;9.82;4.20;;;;;;;21.84;52.82;101064.16;5065843;28;20029;-58
2023/07/16 06:08:41;;;;;;;6.38;4.15;;;;;;;21.83;53.21;101068.72;5048308;28;20033;-59
2023/07/16 06:11:06;;;;;;;8.82;4.93;;;;;;;21.84;52.55;101070.41;5067717;28;20039;-59
2023/07/16 06:13:31;;;;;;;9.13;4.65;;;;;;;21.82;53.03;101069.75;5064547;28;20108;-59
2023/07/16 06:15:57;;;;;;;6.03;4.03;;;;;;;21.84;52.47;101080.44;5061299;28;20041;-58
2023/07/16 06:18:22;;;;;;;13.80;4.15;;;;;;;21.82;52.56;101074.31;5065036;28;20086;-59
2023/07/16 06:20:48;;;;;;;11.07;4.63;;;;;;;21.81;52.83;101076.16;5061310;28;20039;-58
2023/07/16 06:23:13;;;;;;;9.13;4.07;;;;;;;21.82;52.39;101083.28;5060579;28;20041;-58
2023/07/16 06:25:40;;;;;;;10.32;4.30;;;;;;;21.81;52.39;101078.03;5062986;28;20103;-59
2023/07/16 06:28:06;;;;;;;7.07;3.97;;;;;;;21.81;52.73;101076.16;5059011;28;20039;-59
2023/07/16 06:30:32;;;;;;;8.70;4.30;;;;;;;21.81;53.08;101075.31;5063619;28;20434;-59
2023/07/16 06:32:58;;;;;;;9.50;4.60;;;;;;;21.80;52.83;101096.16;5065412;28;20032;-58
2023/07/16 06:35:24;;;;;;;10.40;4.80;;;;;;;21.81;52.87;101086.16;5062545;28;20032;-58
2023/07/16 06:37:49;;;;;;;8.98;4.18;;;;;;;21.80;52.47;101093.47;5063462;28;20035;-59
2023/07/16 06:40:15;;;;;;;7.13;4.47;;;;;;;21.82;52.40;101096.00;5063214;28;20060;-58
2023/07/16 06:42:40;;;;;;;8.82;4.47;;;;;;;21.81;52.84;101097.00;5058921;28;20025;-59
2023/07/16 06:45:06;;;;;;;9.13;4.20;;;;;;;21.82;52.99;101101.44;5058867;28;20060;-59
2023/07/16 06:47:32;;;;;;;7.35;4.18;;;;;;;21.81;53.03;101094.31;5055553;28;20044;-59
2023/07/16 06:49:57;;;;;;;10.07;4.95;;;;;;;21.82;53.10;101106.84;5059427;28;20382;-58
2023/07/16 06:52:24;;;;;;;8.45;4.47;;;;;;;21.81;52.73;101105.97;5067092;28;20027;-58
2023/07/16 06:54:49;;;;;;;10.02;4.57;;;;;;;21.82;52.79;101113.13;5059443;28;20025;-58
2023/07/16 06:57:15;;;;;;;8.90;4.70;;;;;;;21.82;53.17;101110.41;5054696;28;20036;-59
2023/07/16 06:59:40;;;;;;;8.82;4.85;;;;;;;21.81;53.00;101107.84;5059294;28;20036;-59
2023/07/16 07:02:06;;;;;;;7.70;4.40;;;;;;;21.82;53.11;101113.13;5054820;28;20025;-58
2023/07/16 07:04:32;;;;;;;6.85;4.57;;;;;;;21.82;52.94;101117.69;5057849;28;20032;-59
2023/07/16 07:06:57;;;;;;;8.02;4.82;;;;;;;21.83;53.11;101125.63;5048690;28;20112;-58
2023/07/16 07:09:22;;;;;;;9.57;4.53;;;;;;;21.82;52.82;101118.53;5058761;28;20471;-59
2023/07/16 07:11:48;;;;;;;7.32;4.35;;;;;;;21.82;52.97;101125.81;5058356;28;20033;-59
2023/07/16 07:14:13;;;;;;;6.93;4.20;;;;;;;21.83;52.95;101128.34;5062857;28;20025;-59
2023/07/16 07:16:39;;;;;;;11.52;5.18;;;;;;;21.82;52.79;101134.81;5055624;28;20517;-59
2023/07/16 07:19:05;;;;;;;7.35;4.88;;;;;;;21.83;52.93;101132.94;5060290;28;20467;-59
2023/07/16 07:21:31;;;;;;;6.22;4.35;;;;;;;21.81;52.84;101135.78;5058115;28;20108;-59
2023/07/16 07:23:56;;;;;;;7.38;4.82;;;;;;;21.83;52.89;101132.94;5057221;28;20108;-58
2023/07/16 07:26:21;;;;;;;11.15;4.78;;;;;;;21.82;52.92;101148.34;5063955;28;20087;-58
2023/07/16 07:28:47;;;;;;;7.00;4.55;;;;;;;21.83;53.27;101139.19;5059312;28;20111;-59
2023/07/16 07:31:18;;;;;;;9.98;5.07;;;;;;;21.83;52.70;101141.91;5059763;28;20490;-58
2023/07/16 07:33:44;;;;;;;10.30;4.75;;;;;;;21.85;53.26;101139.03;5057023;28;20044;-59
2023/07/16 07:36:09;;;;;;;9.02;5.57;;;;;;;21.84;53.26;101142.78;5059686;28;20033;-59
2023/07/16 07:38:35;;;;;;;11.65;5.30;;;;;;;21.83;53.29;101136.47;5058059;28;20044;-59
2023/07/16 07:41:00;;;;;;;9.63;5.40;;;;;;;21.83;53.29;101139.19;5057045;28;20032;-59
2023/07/16 07:43:26;;;;;;;8.77;4.65;;;;;;;21.82;52.84;101136.66;5058477;28;20031;-59
2023/07/16 07:45:52;;;;;;;10.10;5.38;;;;;;;21.83;53.13;101149.19;5059187;28;20475;-59
2023/07/16 07:48:18;;;;;;;9.52;4.60;;;;;;;21.83;52.84;101160.88;5056099;28;20021;-59
2023/07/16 07:50:43;;;;;;;10.88;5.10;;;;;;;21.83;52.98;101150.03;5058099;28;20105;-59
2023/07/16 07:53:08;;;;;;;10.40;5.28;;;;;;;21.84;52.70;101157.16;5054511;28;20033;-58
2023/07/16 07:55:37;;;;;;;11.48;5.53;;;;;;;21.84;52.86;101145.47;5053800;28;20071;-59
2023/07/16 07:58:02;;;;;;;12.80;5.90;;;;;;;21.85;53.03;101158.00;5053612;28;20475;-59
2023/07/16 08:00:28;;;;;;;9.02;5.07;;;;;;;21.85;53.05;101149.88;5062028;28;20028;-59
2023/07/16 08:02:53;;;;;;;10.02;5.45;;;;;;;21.86;53.48;101146.16;5065392;28;20463;-58
2023/07/16 08:05:19;;;;;;;9.45;5.78;;;;;;;21.85;53.44;101149.88;5057944;28;20025;-59
2023/07/16 08:07:44;;;;;;;10.13;5.28;;;;;;;21.84;53.35;101143.63;5067436;28;20024;-59
2023/07/16 08:10:10;;;;;;;8.23;4.82;;;;;;;21.85;53.10;101148.00;5060238;28;20078;-59
2023/07/16 08:12:35;;;;;;;7.82;4.80;;;;;;;21.86;53.36;101146.16;5064269;28;20519;-59
2023/07/16 08:15:01;;;;;;;6.90;5.35;;;;;;;21.86;53.22;101160.56;5064341;28;20039;-58
2023/07/16 08:17:26;;;;;;;9.82;5.05;;;;;;;21.86;53.50;101155.13;5061733;28;20041;-59
2023/07/16 08:19:51;;;;;;;10.80;5.82;;;;;;;21.85;53.47;101156.13;5060273;28;20032;-59
2023/07/16 08:22:17;;;;;;;9.00;5.20;;;;;;;21.88;53.58;101156.84;5064048;28;20025;-59
2023/07/16 08:24:42;;;;;;;11.40;5.30;;;;;;;21.85;53.60;101153.44;5062079;28;20029;-59
2023/07/16 08:27:08;;;;;;;8.65;5.57;;;;;;;21.86;53.46;101160.56;5061663;28;20463;-59
2023/07/16 08:29:35;;;;;;;12.07;5.28;;;;;;;21.85;53.11;101153.44;5060698;28;20068;-59
2023/07/16 08:32:01;;;;;;;10.05;5.55;;;;;;;21.87;53.39;101161.41;5064354;28;20025;-59
2023/07/16 08:34:26;;;;;;;9.73;5.57;;;;;;;21.88;53.05;101173.13;5059444;28;20032;-59
2023/07/16 08:36:51;;;;;;;10.77;5.32;;;;;;;21.86;53.06;101163.28;5066627;28;20033;-59
2023/07/16 08:39:19;;;;;;;12.18;5.28;;;;;;;21.88;53.29;101167.69;5060374;28;20029;-59
2023/07/16 08:41:44;;;;;;;9.57;5.00;;;;;;;21.86;53.28;101171.41;5068081;28;20036;-59
2023/07/16 08:44:11;;;;;;;9.60;5.03;;;;;;;21.88;53.76;101167.69;5060155;28;20488;-59
2023/07/16 08:46:37;;;;;;;8.00;4.82;;;;;;;21.86;53.36;101165.97;5054385;28;20048;-59
2023/07/16 08:49:04;;;;;;;9.68;5.15;;;;;;;21.88;53.24;101167.69;5056496;28;20059;-59
2023/07/16 08:51:30;;;;;;;8.73;4.78;;;;;;;21.88;53.52;101179.38;5061334;28;20558;-59
2023/07/16 08:53:55;;;;;;;10.55;5.40;;;;;;;21.87;53.33;101174.94;5063344;28;20112;-59
2023/07/16 08:56:21;;;;;;;9.85;4.70;;;;;;;21.89;53.57;101180.22;5060148;28;20043;-59
2023/07/16 08:58:47;;;;;;;9.20;5.03;;;;;;;21.89;53.72;101174.78;5059884;28;20029;-59
2023/07/16 09:01:13;;;;;;;9.93;4.97;;;;;;;21.89;53.39;101177.50;5067720;28;20040;-59
2023/07/16 09:03:38;;;;;;;10.05;5.10;;;;;;;21.89;53.51;101180.22;5059509;28;20025;-59
2023/07/16 09:06:04;;;;;;;7.43;4.80;;;;;;;21.89;53.52;101178.34;5057189;28;20085;-59
2023/07/16 09:08:29;;;;;;;6.80;5.07;;;;;;;21.91;53.78;101184.44;5059819;28;20112;-59
2023/07/16 09:10:56;;;;;;;8.00;5.30;;;;;;;21.91;53.54;101189.03;5055442;28;20120;-59
2023/07/16 09:13:26;;;;;;;9.02;5.18;;;;;;;21.92;53.20;101185.31;5063194;28;20028;-59
2023/07/16 09:15:52;;;;;;;10.07;5.03;;;;;;;21.93;53.27;101190.56;5047559;28;20510;-59
2023/07/16 09:18:26;;;;;;;8.70;4.75;;;;;;;21.93;53.42;101192.44;5056313;28;20071;-59
2023/07/16 09:20:58;;;;;;;8.82;4.88;;;;;;;21.93;53.20;101192.44;5063928;28;20036;-59
2023/07/16 09:23:26;;;;;;;7.28;4.50;;;;;;;21.94;53.61;101194.13;5069261;28;20378;-59
2023/07/16 09:25:51;;;;;;;9.32;4.78;;;;;;;21.93;53.69;101185.13;5060832;28;20428;-59
2023/07/16 09:28:18;;;;;;;8.52;4.70;;;;;;;21.95;53.55;101193.09;5058164;28;20033;-59
2023/07/16 09:30:44;;;;;;;7.43;4.85;;;;;;;21.95;53.54;101193.09;5069288;28;20123;-59
2023/07/16 09:33:14;;;;;;;10.60;4.22;;;;;;;21.96;53.47;101197.53;5059305;28;20120;-59
2023/07/16 09:35:39;;;;;;;8.07;4.43;;;;;;;21.97;53.30;101191.06;5054848;28;20021;-59
2023/07/16 09:38:07;;;;;;;9.18;5.50;;;;;;;21.96;53.13;101197.53;5059686;28;20043;-59
2023/07/16 09:40:32;;;;;;;9.45;5.18;;;;;;;21.97;53.58;101199.22;5054557;28;20025;-59
2023/07/16 09:42:58;;;;;;;6.28;4.53;;;;;;;21.97;53.30;101204.63;5059470;28;20368;-59
2023/07/16 09:45:23;;;;;;;6.75;4.88;;;;;;;21.97;53.72;101210.94;5054779;28;20039;-59
2023/07/16 09:47:49;;;;;;;8.57;5.07;;;;;;;21.98;53.32;101206.34;5047053;28;20033;-59
2023/07/16 09:50:15;;;;;;;9.07;4.47;;;;;;;21.98;53.29;101209.91;5062797;28;20021;-59
2023/07/16 09:52:42;;;;;;;7.10;4.53;;;;;;;21.97;53.10;101210.06;5059635;28;20029;-59
2023/07/16 09:55:09;;;;;;;9.43;4.80;;;;;;;21.97;53.64;101212.78;5060493;28;20032;-59
2023/07/16 09:57:37;;;;;;;9.60;4.97;;;;;;;21.98;53.78;101214.47;5064059;28;20120;-59
2023/07/16 10:00:06;;;;;;;10.80;4.47;;;;;;;21.98;53.48;101222.63;5059631;28;20024;-59
2023/07/16 10:02:35;;;;;;;9.88;5.03;;;;;;;22.00;53.82;101226.00;5059578;28;20029;-59
2023/07/16 10:05:27;;;;;;;7.82;4.38;;;;;;;22.03;53.68;101225.69;5054026;28;20364;-59
2023/07/16 10:07:59;;;;;;;7.13;5.15;;;;;;;22.01;53.63;101222.31;5044731;28;20577;-59
2023/07/16 10:10:44;;;;;;;7.05;4.43;;;;;;;22.04;53.70;101224.66;5063438;28;20039;-59
2023/07/16 10:13:12;;;;;;;10.35;4.68;;;;;;;22.02;53.70;101242.97;5054223;28;20035;-59
2023/07/16 10:15:38;;;;;;;11.52;4.90;;;;;;;22.02;53.16;101234.81;5055599;28;20059;-59
2023/07/16 10:18:03;;;;;;;6.93;4.72;;;;;;;22.01;53.94;101238.56;5063234;28;20036;-59
2023/07/16 10:20:42;;;;;;;9.85;4.60;;;;;;;22.04;53.86;101243.66;5059578;28;20383;-59
2023/07/16 10:23:16;;;;;;;9.77;4.70;;;;;;;22.04;53.57;101243.66;5053208;28;20044;-59
2023/07/16 10:25:58;;;;;;;7.13;4.72;;;;;;;22.05;54.03;101245.38;5059746;28;20403;-59
2023/07/16 10:28:23;;;;;;;7.43;4.57;;;;;;;22.04;53.85;101247.19;5058904;28;20025;-59
2023/07/16 10:30:50;;;;;;;6.95;4.65;;;;;;;22.04;53.43;101255.34;5058587;28;20043;-59
2023/07/16 10:33:15;;;;;;;9.20;4.38;;;;;;;22.04;53.93;101255.34;5056298;28;20037;-59
2023/07/16 10:35:47;;;;;;;10.88;4.72;;;;;;;22.06;53.64;101258.72;5063360;28;20036;-59
2023/07/16 10:38:12;;;;;;;10.18;4.70;;;;;;;22.05;53.93;101251.63;5062811;28;20028;-59
2023/07/16 10:40:42;;;;;;;6.13;4.70;;;;;;;22.06;53.49;101253.31;5056861;28;20494;-59
2023/07/16 10:43:08;;;;;;;8.73;4.53;;;;;;;22.07;53.93;101248.75;5057814;28;20079;-59
2023/07/16 10:45:33;;;;;;;7.00;4.38;;;;;;;22.06;53.77;101253.31;5060298;28;20032;-59
2023/07/16 10:47:59;;;;;;;9.65;5.32;;;;;;;22.09;53.95;101265.72;5057812;28;20561;-59
2023/07/16 10:50:24;;;;;;;7.53;4.80;;;;;;;22.08;53.67;101253.16;5059264;28;20422;-59
2023/07/16 10:52:54;;;;;;;9.90;4.85;;;;;;;22.09;53.94;101249.44;5068029;28;20112;-59
2023/07/16 10:55:21;;;;;;;9.05;4.95;;;;;;;22.10;53.78;101259.25;5062566;28;20075;-59
2023/07/16 10:57:50;;;;;;;7.63;4.07;;;;;;;22.09;53.90;101260.28;5062539;28;20048;-58
2023/07/16 11:00:16;;;;;;;7.10;4.32;;;;;;;22.10;53.96;101255.72;5059269;28;20029;-59
2023/07/16 11:02:43;;;;;;;10.27;4.43;;;;;;;22.10;53.64;101270.09;5058556;28;20102;-58
2023/07/16 11:05:13;;;;;;;8.63;4.47;;;;;;;22.11;53.38;101268.25;5063537;28;20021;-58
2023/07/16 11:07:43;;;;;;;6.55;4.25;;;;;;;22.10;53.58;101263.84;5062076;28;20032;-58
2023/07/16 11:10:09;;;;;;;5.45;4.15;;;;;;;22.09;53.59;101281.97;5059725;28;20029;-58
2023/07/16 11:12:34;;;;;;;7.05;4.30;;;;;;;22.10;53.28;101277.41;5060774;28;20041;-58
2023/07/16 11:15:00;;;;;;;9.35;4.28;;;;;;;22.10;53.29;101282.81;5064773;28;20905;-57
2023/07/16 11:17:25;;;;;;;6.75;4.28;;;;;;;22.09;53.04;101283.84;5055874;28;20025;-58
2023/07/16 11:19:52;;;;;;;6.85;3.85;;;;;;;22.09;53.23;101290.13;5058319;28;20111;-58
2023/07/16 11:22:18;;;;;;;7.30;4.13;;;;;;;22.10;53.51;101286.38;5056881;28;20056;-58